createdAt,value
2022-12-19T00:01:57.376Z,15.80
2022-12-19T00:04:25.953Z,15.80
2022-12-19T00:06:54.053Z,15.80
2022-12-19T00:09:21.731Z,15.80
2022-12-19T00:11:49.392Z,15.80
2022-12-19T00:14:17.555Z,15.80
2022-12-19T00:16:45.265Z,15.70
2022-12-19T00:19:13.620Z,15.70
2022-12-19T00:21:41.442Z,15.80
2022-12-19T00:24:15.794Z,15.80
2022-12-19T00:26:49.468Z,15.80
2022-12-19T00:29:17.295Z,15.80
2022-12-19T00:31:45.081Z,15.80
2022-12-19T00:34:15.819Z,15.80
2022-12-19T00:36:43.410Z,15.90
2022-12-19T00:39:12.681Z,16.00
2022-12-19T00:41:42.073Z,16.00
2022-12-19T00:44:11.642Z,16.10
2022-12-19T00:46:39.750Z,16.10
2022-12-19T00:49:07.873Z,16.20
2022-12-19T00:51:36.973Z,16.20
2022-12-19T00:54:07.278Z,16.30
2022-12-19T00:56:37.502Z,16.40
2022-12-19T00:59:06.523Z,16.40
2022-12-19T01:01:36.737Z,16.50
2022-12-19T01:04:27.763Z,16.60
2022-12-19T01:06:52.925Z,16.70
2022-12-19T01:09:21.992Z,16.80
2022-12-19T01:12:12.702Z,16.80
2022-12-19T01:17:43.632Z,16.90
2022-12-19T01:20:13.680Z,17.00
2022-12-19T01:22:41.235Z,17.00
2022-12-19T01:25:09.370Z,17.10
2022-12-19T01:27:37.066Z,17.10
2022-12-19T01:30:05.683Z,17.20
2022-12-19T01:32:36.669Z,17.30
2022-12-19T01:35:05.501Z,17.40
2022-12-19T01:37:33.042Z,17.40
2022-12-19T01:40:02.450Z,17.50
2022-12-19T01:42:35.049Z,17.50
2022-12-19T01:45:08.199Z,17.60
2022-12-19T01:47:48.723Z,17.60
2022-12-19T01:50:26.765Z,17.70
2022-12-19T01:52:54.703Z,17.80
2022-12-19T01:55:22.477Z,17.90
2022-12-19T01:57:50.233Z,17.90
2022-12-19T02:00:17.866Z,18.00
2022-12-19T02:03:08.073Z,18.00
2022-12-19T02:05:39.579Z,18.10
2022-12-19T02:08:08.574Z,18.10
2022-12-19T02:10:36.218Z,18.20
2022-12-19T02:13:03.966Z,18.20
2022-12-19T02:15:33.831Z,18.30
2022-12-19T02:18:04.446Z,18.40
2022-12-19T02:20:55.219Z,18.40
2022-12-19T02:23:50.775Z,18.50
2022-12-19T02:26:37.848Z,18.60
2022-12-19T02:29:05.407Z,18.70
2022-12-19T02:31:57.032Z,18.70
2022-12-19T02:34:44.721Z,18.80
2022-12-19T02:37:32.519Z,18.80
2022-12-19T02:40:09.365Z,18.90
2022-12-19T02:42:39.958Z,19.00
2022-12-19T02:45:10.598Z,19.00
2022-12-19T02:47:38.996Z,19.00
2022-12-19T02:50:07.901Z,19.10
2022-12-19T02:52:36.373Z,19.10
2022-12-19T02:55:07.162Z,19.10
2022-12-19T02:57:40.667Z,19.20
2022-12-19T03:00:14.903Z,19.20
2022-12-19T03:03:00.608Z,19.30
2022-12-19T03:05:38.141Z,19.30
2022-12-19T03:08:12.760Z,19.40
2022-12-19T03:10:47.327Z,19.40
2022-12-19T03:13:35.026Z,19.50
2022-12-19T03:16:03.965Z,19.60
2022-12-19T03:18:33.021Z,19.60
2022-12-19T03:21:04.864Z,19.70
2022-12-19T03:23:33.215Z,19.80
2022-12-19T03:26:07.802Z,19.80
2022-12-19T03:28:42.084Z,19.90
2022-12-19T03:31:11.739Z,20.00
2022-12-19T03:33:41.318Z,20.10
2022-12-19T03:36:12.670Z,20.20
2022-12-19T03:38:41.111Z,20.20
2022-12-19T03:41:12.765Z,20.30
2022-12-19T03:43:41.871Z,20.40
2022-12-19T03:46:28.369Z,20.40
2022-12-19T03:48:57.049Z,20.50
2022-12-19T03:51:27.643Z,20.60
2022-12-19T03:54:02.911Z,20.70
2022-12-19T03:56:43.868Z,20.80
2022-12-19T03:59:22.917Z,20.80
2022-12-19T04:01:50.758Z,20.90
2022-12-19T04:04:18.917Z,21.00
2022-12-19T04:06:47.502Z,21.00
2022-12-19T04:09:20.735Z,21.10
2022-12-19T04:11:54.954Z,21.10
2022-12-19T04:14:36.625Z,21.20
2022-12-19T04:17:13.298Z,21.30
2022-12-19T04:19:55.884Z,21.30
2022-12-19T04:22:31.525Z,21.30
2022-12-19T04:24:59.958Z,21.40
2022-12-19T04:27:34.828Z,21.50
2022-12-19T04:30:03.015Z,21.60
2022-12-19T04:32:34.165Z,21.60
2022-12-19T04:35:03.319Z,21.70
2022-12-19T04:37:32.222Z,21.70
2022-12-19T04:40:00.136Z,21.80
2022-12-19T04:42:27.816Z,21.80
2022-12-19T04:44:55.823Z,21.80
2022-12-19T04:47:24.021Z,21.90
2022-12-19T04:49:51.693Z,22.00
2022-12-19T04:52:19.344Z,22.00
2022-12-19T04:54:46.952Z,22.10
2022-12-19T04:57:14.617Z,22.20
2022-12-19T04:59:42.260Z,22.30
2022-12-19T05:02:10.074Z,22.40
2022-12-19T05:04:37.769Z,22.50
2022-12-19T05:07:05.333Z,22.60
2022-12-19T05:09:34.143Z,22.60
2022-12-19T05:12:01.827Z,22.70
2022-12-19T05:14:31.191Z,22.70
2022-12-19T05:17:01.658Z,22.70
2022-12-19T05:19:30.517Z,22.80
2022-12-19T05:22:00.005Z,22.80
2022-12-19T05:24:30.267Z,22.90
2022-12-19T05:29:39.386Z,23.00
2022-12-19T05:32:07.568Z,23.00
2022-12-19T05:34:35.280Z,23.10
2022-12-19T05:37:05.890Z,23.10
2022-12-19T05:39:37.462Z,23.10
2022-12-19T05:42:08.482Z,23.10
2022-12-19T05:44:41.654Z,23.10
2022-12-19T05:47:10.340Z,23.10
2022-12-19T05:49:38.022Z,23.20
2022-12-19T05:52:06.485Z,23.20
2022-12-19T05:54:34.737Z,23.20
2022-12-19T05:57:02.661Z,23.20
2022-12-19T05:59:31.036Z,23.20
2022-12-19T06:01:58.842Z,23.20
2022-12-19T06:04:27.833Z,23.20
2022-12-19T06:06:56.539Z,23.30
2022-12-19T06:09:31.121Z,23.30
2022-12-19T06:12:00.981Z,23.30
2022-12-19T06:14:31.775Z,23.40
2022-12-19T06:16:59.499Z,23.40
2022-12-19T06:19:27.404Z,23.40
2022-12-19T06:21:55.802Z,23.40
2022-12-19T06:24:24.988Z,23.50
2022-12-19T06:26:55.511Z,23.40
2022-12-19T06:29:23.263Z,23.40
2022-12-19T06:32:00.406Z,23.50
2022-12-19T06:35:02.202Z,23.50
2022-12-19T06:37:19.267Z,23.50
2022-12-19T06:39:49.805Z,23.60
2022-12-19T06:42:41.874Z,23.60
2022-12-19T06:45:09.765Z,23.60
2022-12-19T06:47:37.478Z,23.60
2022-12-19T06:50:11.581Z,23.60
2022-12-19T06:52:59.209Z,23.60
2022-12-19T06:55:27.148Z,23.70
2022-12-19T06:57:55.659Z,23.60
2022-12-19T07:00:24.204Z,23.60
2022-12-19T07:02:55.020Z,23.60
2022-12-19T07:05:25.882Z,23.70
2022-12-19T07:07:54.264Z,23.70
2022-12-19T07:10:23.793Z,23.70
2022-12-19T07:12:51.476Z,23.70
2022-12-19T07:15:20.989Z,23.70
2022-12-19T07:17:48.976Z,23.70
2022-12-19T07:20:21.891Z,23.70
2022-12-19T07:22:53.541Z,23.70
2022-12-19T07:25:21.283Z,23.70
2022-12-19T07:27:49.715Z,23.70
2022-12-19T07:30:24.279Z,23.70
2022-12-19T07:32:58.011Z,23.70
2022-12-19T07:35:26.969Z,23.70
2022-12-19T07:38:07.656Z,23.80
2022-12-19T07:40:36.184Z,23.80
2022-12-19T07:43:14.067Z,23.80
2022-12-19T07:45:44.953Z,23.80
2022-12-19T07:48:13.467Z,23.90
2022-12-19T07:50:42.668Z,23.90
2022-12-19T07:53:10.281Z,24.00
2022-12-19T07:55:40.357Z,24.00
2022-12-19T07:58:10.695Z,24.00
2022-12-19T08:00:42.146Z,24.00
2022-12-19T08:03:11.798Z,24.00
2022-12-19T08:05:39.759Z,24.00
2022-12-19T08:08:09.167Z,24.00
2022-12-19T08:10:44.897Z,24.00
2022-12-19T08:13:14.827Z,24.00
2022-12-19T08:15:45.742Z,24.00
2022-12-19T08:18:19.881Z,23.90
2022-12-19T08:20:56.255Z,23.90
2022-12-19T08:23:25.707Z,23.90
2022-12-19T08:26:08.716Z,23.90
2022-12-19T08:31:21.493Z,23.90
2022-12-19T08:33:52.416Z,24.00
2022-12-19T08:36:25.597Z,24.00
2022-12-19T08:41:43.721Z,23.90
2022-12-19T08:47:00.802Z,23.90
2022-12-19T08:49:33.685Z,23.90
2022-12-19T08:54:46.002Z,23.90
2022-12-19T08:57:13.937Z,23.90
2022-12-19T08:59:42.230Z,23.90
2022-12-19T09:02:12.511Z,23.90
2022-12-19T09:05:59.701Z,23.90
2022-12-19T09:07:45.210Z,24.00
2022-12-19T09:10:14.044Z,24.00
2022-12-19T09:12:43.776Z,23.90
2022-12-19T09:15:14.159Z,23.90
2022-12-19T09:17:41.909Z,23.90
2022-12-19T09:20:19.554Z,23.90
2022-12-19T09:22:50.615Z,23.90
2022-12-19T09:25:18.982Z,23.90
2022-12-19T09:28:17.918Z,23.90
2022-12-19T09:30:37.352Z,23.90
2022-12-19T09:33:06.969Z,23.80
2022-12-19T09:35:43.485Z,23.80
2022-12-19T09:38:13.407Z,23.80
2022-12-19T09:40:56.344Z,23.80
2022-12-19T09:43:23.868Z,23.80
2022-12-19T09:45:54.995Z,23.80
2022-12-19T09:48:24.481Z,23.70
2022-12-19T09:50:58.572Z,23.70
2022-12-19T09:53:57.236Z,23.70
2022-12-19T09:56:30.081Z,23.70
2022-12-19T09:59:13.505Z,23.70
2022-12-19T10:01:51.214Z,23.70
2022-12-19T10:04:19.553Z,23.70
2022-12-19T10:11:51.482Z,23.60
2022-12-19T10:12:39.584Z,23.60
2022-12-19T10:15:19.569Z,23.60
2022-12-19T10:18:09.967Z,23.50
2022-12-19T10:20:41.160Z,23.50
2022-12-19T10:23:10.274Z,23.50
2022-12-19T10:25:51.053Z,23.50
2022-12-19T10:28:21.960Z,23.40
2022-12-19T10:31:21.066Z,23.40
2022-12-19T10:33:52.983Z,23.40
2022-12-19T10:36:20.620Z,23.30
2022-12-19T10:38:55.348Z,23.30
2022-12-19T10:41:24.739Z,23.30
2022-12-19T10:44:03.578Z,23.20
2022-12-19T10:46:38.328Z,23.20
2022-12-19T10:49:23.206Z,23.20
2022-12-19T10:51:57.195Z,23.10
2022-12-19T10:54:33.441Z,23.10
2022-12-19T10:57:19.973Z,23.10
2022-12-19T11:00:05.143Z,23.10
2022-12-19T11:02:40.360Z,23.00
2022-12-19T11:05:23.809Z,23.00
2022-12-19T11:08:07.610Z,23.00
2022-12-19T11:11:57.985Z,23.00
2022-12-19T11:18:15.264Z,22.90
2022-12-19T11:19:56.583Z,22.90
2022-12-19T11:29:17.391Z,22.90
2022-12-19T11:30:37.379Z,22.90
2022-12-19T11:30:37.868Z,22.80
2022-12-19T11:30:46.602Z,22.80
2022-12-19T11:34:04.857Z,22.60
2022-12-19T11:36:42.680Z,22.60
2022-12-19T11:39:15.875Z,22.60
2022-12-19T11:41:50.389Z,22.50
2022-12-19T11:44:27.586Z,22.50
2022-12-19T11:47:13.655Z,22.50
2022-12-19T11:49:52.765Z,22.40
2022-12-19T11:55:47.605Z,22.30
2022-12-19T11:58:15.977Z,22.30
2022-12-19T12:01:06.580Z,22.20
2022-12-19T12:03:40.179Z,22.20
2022-12-19T12:06:16.867Z,22.20
2022-12-19T12:09:56.062Z,22.10
2022-12-19T12:22:00.165Z,22.10
2022-12-19T12:23:30.924Z,22.10
2022-12-19T12:31:11.703Z,22.00
2022-12-19T12:31:28.654Z,22.00
2022-12-19T12:31:30.963Z,22.00
2022-12-19T12:31:49.077Z,22.00
2022-12-19T12:31:52.735Z,22.00
2022-12-19T12:36:00.034Z,21.90
2022-12-19T12:38:43.414Z,21.90
2022-12-19T12:41:20.234Z,21.90
2022-12-19T12:44:04.197Z,21.80
2022-12-19T12:46:36.999Z,21.80
2022-12-19T12:49:05.534Z,21.80
2022-12-19T12:51:34.269Z,21.80
2022-12-19T12:54:09.479Z,21.70
2022-12-19T12:56:37.411Z,21.70
2022-12-19T12:59:08.229Z,21.70
2022-12-19T13:01:39.020Z,21.70
2022-12-19T13:04:18.718Z,21.70
2022-12-19T13:07:07.844Z,21.70
2022-12-19T13:09:36.896Z,21.60
2022-12-19T13:12:33.164Z,21.60
2022-12-19T13:15:20.830Z,21.60
2022-12-19T13:17:48.422Z,21.60
2022-12-19T13:20:20.224Z,21.50
2022-12-19T13:23:01.973Z,21.50
2022-12-19T13:25:38.610Z,21.50
2022-12-19T13:28:21.974Z,21.40
2022-12-19T13:31:20.586Z,21.40
2022-12-19T13:33:56.276Z,21.40
2022-12-19T13:39:48.417Z,21.40
2022-12-19T13:40:01.046Z,21.30
2022-12-19T13:42:43.414Z,21.30
2022-12-19T13:45:25.368Z,21.30
2022-12-19T13:47:57.453Z,21.20
2022-12-19T13:50:25.876Z,21.20
2022-12-19T13:52:54.702Z,21.10
2022-12-19T13:55:22.889Z,21.20
2022-12-19T14:00:51.944Z,21.10
2022-12-19T14:03:24.330Z,21.10
2022-12-19T14:06:16.421Z,21.10
2022-12-19T14:08:45.213Z,21.00
2022-12-19T14:11:33.469Z,21.00
2022-12-19T14:14:27.952Z,20.90
2022-12-19T14:16:56.938Z,20.90
2022-12-19T14:19:30.387Z,20.90
2022-12-19T14:22:15.641Z,20.90
2022-12-19T14:25:33.411Z,20.90
2022-12-19T14:28:19.305Z,20.80
2022-12-19T14:30:44.664Z,20.80
2022-12-19T14:33:46.858Z,20.70
2022-12-19T14:36:14.653Z,20.70
2022-12-19T14:39:27.629Z,20.70
2022-12-19T14:42:01.351Z,20.70
2022-12-19T14:52:53.686Z,20.70
2022-12-19T14:54:06.401Z,20.70
2022-12-19T14:54:07.607Z,20.60
2022-12-19T14:54:35.861Z,20.60
2022-12-19T14:59:03.591Z,20.50
2022-12-19T15:01:33.471Z,20.50
2022-12-19T15:04:51.621Z,20.60
2022-12-19T15:07:09.248Z,20.60
2022-12-19T15:11:04.818Z,20.60
2022-12-19T15:14:54.921Z,20.50
2022-12-19T15:16:04.496Z,20.50
2022-12-19T15:18:42.860Z,20.50
2022-12-19T15:21:13.520Z,20.50
2022-12-19T15:23:41.547Z,20.50
2022-12-19T15:26:14.245Z,20.50
2022-12-19T15:28:42.584Z,20.50
2022-12-19T15:31:25.739Z,20.50
2022-12-19T15:34:32.373Z,20.50
2022-12-19T15:36:40.851Z,20.50
2022-12-19T15:39:08.385Z,20.40
2022-12-19T15:41:36.834Z,20.50
2022-12-19T15:44:14.907Z,20.50
2022-12-19T15:46:48.924Z,20.50
2022-12-19T15:49:23.778Z,20.50
2022-12-19T15:51:51.798Z,20.50
2022-12-19T15:57:07.191Z,20.50
2022-12-19T15:59:41.964Z,20.50
2022-12-19T16:02:24.637Z,20.50
2022-12-19T16:04:56.908Z,20.50
2022-12-19T16:07:29.883Z,20.50
2022-12-19T16:09:57.448Z,20.50
2022-12-19T16:12:28.848Z,20.50
2022-12-19T16:14:58.924Z,20.50
2022-12-19T16:17:27.516Z,20.40
2022-12-19T16:19:55.368Z,20.50
2022-12-19T16:22:25.646Z,20.50
2022-12-19T16:24:53.841Z,20.50
2022-12-19T16:27:25.969Z,20.50
2022-12-19T16:29:55.089Z,20.40
2022-12-19T16:32:24.983Z,20.40
2022-12-19T16:34:53.163Z,20.40
2022-12-19T16:37:20.970Z,20.40
2022-12-19T16:39:48.531Z,20.40
2022-12-19T16:42:18.429Z,20.40
2022-12-19T16:44:48.327Z,20.40
2022-12-19T16:47:17.818Z,20.30
2022-12-19T16:49:45.493Z,20.30
2022-12-19T16:52:13.116Z,20.30
2022-12-19T16:54:40.754Z,20.30
2022-12-19T16:57:17.077Z,20.20
2022-12-19T16:59:44.716Z,20.20
2022-12-19T17:02:31.590Z,20.20
2022-12-19T17:04:59.263Z,20.20
2022-12-19T17:07:27.617Z,20.10
2022-12-19T17:09:55.093Z,20.10
2022-12-19T17:12:24.032Z,20.10
2022-12-19T17:14:51.856Z,20.10
2022-12-19T17:17:20.167Z,20.10
2022-12-19T17:19:48.691Z,20.10
2022-12-19T17:22:17.887Z,20.10
2022-12-19T17:24:47.582Z,20.10
2022-12-19T17:27:17.619Z,20.10
2022-12-19T17:29:47.361Z,20.10
2022-12-19T17:32:23.575Z,20.10
2022-12-19T17:34:53.390Z,20.00
2022-12-19T17:37:21.419Z,20.00
2022-12-19T17:39:48.920Z,20.00
2022-12-19T17:42:19.136Z,20.00
2022-12-19T17:44:46.620Z,20.00
2022-12-19T17:47:19.257Z,20.00
2022-12-19T17:49:47.524Z,20.00
2022-12-19T17:52:16.953Z,20.00
2022-12-19T17:54:45.571Z,20.00
2022-12-19T17:57:17.656Z,20.00
2022-12-19T17:59:46.957Z,20.00
2022-12-19T18:02:21.810Z,19.90
2022-12-19T18:04:49.864Z,19.90
2022-12-19T18:07:18.671Z,19.90
2022-12-19T18:09:46.376Z,19.90
2022-12-19T18:12:14.173Z,19.80
2022-12-19T18:14:42.317Z,19.80
2022-12-19T18:17:13.342Z,19.80
2022-12-19T18:19:40.891Z,19.80
2022-12-19T18:22:15.078Z,19.70
2022-12-19T18:24:42.650Z,19.80
2022-12-19T18:27:10.443Z,19.70
2022-12-19T18:29:38.780Z,19.70
2022-12-19T18:32:06.675Z,19.70
2022-12-19T18:34:36.079Z,19.70
2022-12-19T18:37:05.680Z,19.70
2022-12-19T18:39:35.128Z,19.70
2022-12-19T18:42:02.622Z,19.60
2022-12-19T18:44:30.942Z,19.60
2022-12-19T18:47:01.922Z,19.60
2022-12-19T18:49:29.516Z,19.50
2022-12-19T18:51:57.092Z,19.50
2022-12-19T18:54:25.762Z,19.40
2022-12-19T18:56:53.425Z,19.40
2022-12-19T18:59:20.960Z,19.40
2022-12-19T19:01:49.385Z,19.40
2022-12-19T19:04:18.221Z,19.40
2022-12-19T19:06:51.741Z,19.40
2022-12-19T19:09:20.827Z,19.40
2022-12-19T19:11:49.237Z,19.30
2022-12-19T19:14:17.047Z,19.30
2022-12-19T19:16:45.932Z,19.30
2022-12-19T19:19:16.452Z,19.30
2022-12-19T19:21:44.209Z,19.30
2022-12-19T19:24:15.256Z,19.20
2022-12-19T19:26:42.881Z,19.20
2022-12-19T19:29:10.517Z,19.20
2022-12-19T19:31:39.811Z,19.20
2022-12-19T19:34:11.433Z,19.20
2022-12-19T19:36:41.608Z,19.20
2022-12-19T19:39:09.152Z,19.20
2022-12-19T19:41:37.225Z,19.20
2022-12-19T19:44:06.275Z,19.20
2022-12-19T19:46:34.482Z,19.10
2022-12-19T19:49:02.912Z,19.00
2022-12-19T19:51:30.592Z,19.00
2022-12-19T19:53:58.417Z,19.00
2022-12-19T19:56:26.746Z,19.00
2022-12-19T19:58:55.728Z,19.00
2022-12-19T20:01:24.192Z,19.00
2022-12-19T20:03:54.350Z,19.00
2022-12-19T20:06:22.135Z,18.90
2022-12-19T20:08:49.833Z,18.90
2022-12-19T20:11:17.417Z,18.90
2022-12-19T20:13:45.791Z,18.90
2022-12-19T20:16:16.151Z,18.80
2022-12-19T20:18:48.214Z,18.80
2022-12-19T20:21:15.831Z,18.70
2022-12-19T20:23:44.745Z,18.70
2022-12-19T20:26:14.703Z,18.60
2022-12-19T20:28:48.190Z,18.60
2022-12-19T20:31:22.007Z,18.60
2022-12-19T20:33:50.776Z,18.50
2022-12-19T20:36:18.361Z,18.50
2022-12-19T20:38:46.653Z,18.40
2022-12-19T20:41:14.425Z,18.40
2022-12-19T20:43:43.186Z,18.40
2022-12-19T20:46:16.032Z,18.40
2022-12-19T20:48:44.125Z,18.30
2022-12-19T20:51:12.557Z,18.20
2022-12-19T20:53:41.639Z,18.20
2022-12-19T20:56:09.899Z,18.20
2022-12-19T20:58:38.397Z,18.20
2022-12-19T21:01:12.085Z,18.10
2022-12-19T21:03:40.939Z,18.10
2022-12-19T21:06:09.611Z,18.10
2022-12-19T21:08:37.614Z,18.10
2022-12-19T21:11:05.906Z,18.10
2022-12-19T21:13:34.614Z,18.10
2022-12-19T21:16:03.627Z,18.00
2022-12-19T21:18:32.148Z,18.00
2022-12-19T21:21:01.262Z,18.00
2022-12-19T21:23:29.116Z,18.00
2022-12-19T21:26:01.087Z,18.00
2022-12-19T21:28:28.904Z,18.00
2022-12-19T21:31:04.860Z,18.00
2022-12-19T21:33:33.248Z,18.00
2022-12-19T21:36:11.634Z,18.00
2022-12-19T21:38:39.173Z,18.00
2022-12-19T21:41:07.626Z,18.00
2022-12-19T21:43:36.967Z,18.00
2022-12-19T21:46:09.269Z,18.00
2022-12-19T21:48:37.929Z,18.00
2022-12-19T21:51:05.583Z,18.00
2022-12-19T21:53:33.513Z,18.00
2022-12-19T21:56:27.696Z,18.00
2022-12-19T21:58:57.652Z,18.00
2022-12-19T22:01:25.817Z,18.00
2022-12-19T22:03:53.792Z,18.00
2022-12-19T22:06:28.190Z,17.90
2022-12-19T22:08:57.281Z,17.90
2022-12-19T22:11:25.333Z,17.90
2022-12-19T22:13:53.951Z,17.90
2022-12-19T22:16:21.751Z,17.90
2022-12-19T22:18:52.282Z,17.90
2022-12-19T22:21:20.515Z,17.90
2022-12-19T22:23:48.037Z,17.90
2022-12-19T22:26:20.425Z,17.90
2022-12-19T22:28:50.060Z,17.90
2022-12-19T22:31:18.452Z,17.90
2022-12-19T22:33:46.506Z,17.90
2022-12-19T22:36:15.615Z,17.90
2022-12-19T22:38:45.322Z,17.90
2022-12-19T22:41:13.698Z,17.80
2022-12-19T22:43:41.471Z,17.80
2022-12-19T22:46:29.949Z,17.80
2022-12-19T22:48:59.612Z,17.70
2022-12-19T22:51:28.042Z,17.70
2022-12-19T22:53:57.759Z,17.70
2022-12-19T22:56:27.879Z,17.70
2022-12-19T22:58:57.063Z,17.70
2022-12-19T23:01:25.858Z,17.70
2022-12-19T23:03:55.631Z,17.70
2022-12-19T23:06:24.269Z,17.70
2022-12-19T23:08:53.545Z,17.60
2022-12-19T23:11:23.461Z,17.60
2022-12-19T23:13:50.999Z,17.60
2022-12-19T23:16:19.200Z,17.60
2022-12-19T23:18:46.727Z,17.50
2022-12-19T23:21:16.244Z,17.50
2022-12-19T23:23:44.604Z,17.50
2022-12-19T23:26:15.929Z,17.40
2022-12-19T23:28:44.952Z,17.40
2022-12-19T23:31:13.511Z,17.40
2022-12-19T23:33:41.026Z,17.40
2022-12-19T23:36:09.454Z,17.40
2022-12-19T23:38:37.674Z,17.40
2022-12-19T23:41:09.351Z,17.30
2022-12-19T23:43:37.494Z,17.30
2022-12-19T23:46:14.700Z,17.30
2022-12-19T23:48:42.726Z,17.30
2022-12-19T23:51:18.215Z,17.20
2022-12-19T23:53:47.022Z,17.20
2022-12-19T23:56:21.913Z,17.30
2022-12-19T23:58:49.606Z,17.20
